sensor_id;sensor_type;location;lat;lon;timestamp;pressure;altitude;pressure_sealevel;temperature;humidity
71996;BME280;59862;47.732;7.346;2023-04-06T00:00:59;98316.47;;;2.26;59.39
71996;BME280;59862;47.732;7.346;2023-04-06T00:03:27;98316.73;;;2.17;59.89
71996;BME280;59862;47.732;7.346;2023-04-06T00:05:54;98318.52;;;2.17;59.98
71996;BME280;59862;47.732;7.346;2023-04-06T00:08:21;98316.87;;;2.05;60.27
71996;BME280;59862;47.732;7.346;2023-04-06T00:10:50;98315.16;;;2.15;60.33
71996;BME280;59862;47.732;7.346;2023-04-06T00:13:17;98309.16;;;2.13;60.57
71996;BME280;59862;47.732;7.346;2023-04-06T00:15:45;98305.79;;;2.11;60.79
71996;BME280;59862;47.732;7.346;2023-04-06T00:18:13;98308.22;;;2.03;61.28
71996;BME280;59862;47.732;7.346;2023-04-06T00:20:41;98304.86;;;2.01;61.41
71996;BME280;59862;47.732;7.346;2023-04-06T00:23:08;98306.16;;;2.06;61.50
71996;BME280;59862;47.732;7.346;2023-04-06T00:25:35;98303.63;;;1.99;61.70
71996;BME280;59862;47.732;7.346;2023-04-06T00:28:03;98304.23;;;1.97;62.07
71996;BME280;59862;47.732;7.346;2023-04-06T00:30:30;98295.50;;;1.86;62.77
71996;BME280;59862;47.732;7.346;2023-04-06T00:32:58;98300.31;;;1.70;63.54
71996;BME280;59862;47.732;7.346;2023-04-06T00:35:26;98297.66;;;1.59;64.03
71996;BME280;59862;47.732;7.346;2023-04-06T00:37:53;98297.66;;;1.70;63.98
71996;BME280;59862;47.732;7.346;2023-04-06T00:40:21;98294.17;;;1.69;64.00
71996;BME280;59862;47.732;7.346;2023-04-06T00:42:48;98292.52;;;1.51;64.45
71996;BME280;59862;47.732;7.346;2023-04-06T00:45:16;98293.11;;;1.38;65.39
71996;BME280;59862;47.732;7.346;2023-04-06T00:47:44;98287.92;;;1.37;65.67
71996;BME280;59862;47.732;7.346;2023-04-06T00:50:11;98288.55;;;1.40;65.68
71996;BME280;59862;47.732;7.346;2023-04-06T00:52:39;98285.03;;;1.34;65.63
71996;BME280;59862;47.732;7.346;2023-04-06T00:55:07;98285.03;;;1.34;65.43
71996;BME280;59862;47.732;7.346;2023-04-06T00:57:34;98278.56;;;1.44;65.42
71996;BME280;59862;47.732;7.346;2023-04-06T01:00:03;98280.98;;;1.47;65.38
71996;BME280;59862;47.732;7.346;2023-04-06T01:02:31;98279.53;;;1.48;65.20
71996;BME280;59862;47.732;7.346;2023-04-06T01:04:58;98278.08;;;1.50;65.21
71996;BME280;59862;47.732;7.346;2023-04-06T01:07:26;98277.58;;;1.56;65.19
71996;BME280;59862;47.732;7.346;2023-04-06T01:09:55;98275.07;;;1.54;65.22
71996;BME280;59862;47.732;7.346;2023-04-06T01:12:23;98274.12;;;1.56;64.97
71996;BME280;59862;47.732;7.346;2023-04-06T01:14:51;98275.79;;;1.45;64.97
71996;BME280;59862;47.732;7.346;2023-04-06T01:17:19;98270.64;;;1.38;64.67
71996;BME280;59862;47.732;7.346;2023-04-06T01:19:46;98263.91;;;1.40;64.65
71996;BME280;59862;47.732;7.346;2023-04-06T01:22:17;98259.34;;;1.42;64.37
71996;BME280;59862;47.732;7.346;2023-04-06T01:24:45;98264.00;;;1.49;64.01
71996;BME280;59862;47.732;7.346;2023-04-06T01:27:13;98253.92;;;1.54;63.65
71996;BME280;59862;47.732;7.346;2023-04-06T01:29:41;98257.03;;;1.54;63.33
71996;BME280;59862;47.732;7.346;2023-04-06T01:32:09;98256.33;;;1.58;63.23
71996;BME280;59862;47.732;7.346;2023-04-06T01:34:37;98260.41;;;1.62;63.30
71996;BME280;59862;47.732;7.346;2023-04-06T01:37:04;98256.20;;;1.59;62.94
71996;BME280;59862;47.732;7.346;2023-04-06T01:39:31;98260.75;;;1.63;62.82
71996;BME280;59862;47.732;7.346;2023-04-06T01:41:59;98257.05;;;1.60;62.58
71996;BME280;59862;47.732;7.346;2023-04-06T01:44:26;98253.91;;;1.66;62.75
71996;BME280;59862;47.732;7.346;2023-04-06T01:46:56;98252.22;;;1.65;62.55
71996;BME280;59862;47.732;7.346;2023-04-06T01:49:23;98254.05;;;1.64;62.33
71996;BME280;59862;47.732;7.346;2023-04-06T01:51:50;98246.09;;;1.59;62.68
71996;BME280;59862;47.732;7.346;2023-04-06T01:54:20;98241.91;;;1.50;62.64
71996;BME280;59862;47.732;7.346;2023-04-06T01:56:47;98242.27;;;1.57;62.42
71996;BME280;59862;47.732;7.346;2023-04-06T01:59:16;98245.15;;;1.60;62.51
71996;BME280;59862;47.732;7.346;2023-04-06T02:01:44;98236.39;;;1.53;62.62
71996;BME280;59862;47.732;7.346;2023-04-06T02:04:11;98241.41;;;1.57;62.68
71996;BME280;59862;47.732;7.346;2023-04-06T02:06:40;98238.16;;;1.59;62.56
71996;BME280;59862;47.732;7.346;2023-04-06T02:09:08;98238.41;;;1.61;62.39
71996;BME280;59862;47.732;7.346;2023-04-06T02:11:35;98240.11;;;1.62;62.59
71996;BME280;59862;47.732;7.346;2023-04-06T02:14:03;98239.84;;;1.54;62.40
71996;BME280;59862;47.732;7.346;2023-04-06T02:16:31;98236.12;;;1.45;62.64
71996;BME280;59862;47.732;7.346;2023-04-06T02:18:58;98233.75;;;1.42;62.66
71996;BME280;59862;47.732;7.346;2023-04-06T02:21:26;98236.62;;;1.39;62.98
71996;BME280;59862;47.732;7.346;2023-04-06T02:23:53;98237.83;;;1.35;63.25
71996;BME280;59862;47.732;7.346;2023-04-06T02:26:21;98232.18;;;1.29;63.28
71996;BME280;59862;47.732;7.346;2023-04-06T02:28:48;98232.41;;;1.26;63.19
71996;BME280;59862;47.732;7.346;2023-04-06T02:31:16;98231.82;;;1.22;63.78
71996;BME280;59862;47.732;7.346;2023-04-06T02:33:43;98236.27;;;1.33;63.43
71996;BME280;59862;47.732;7.346;2023-04-06T02:36:11;98232.53;;;1.41;63.40
71996;BME280;59862;47.732;7.346;2023-04-06T02:38:38;98226.77;;;1.41;63.56
71996;BME280;59862;47.732;7.346;2023-04-06T02:41:06;98235.41;;;1.32;63.57
71996;BME280;59862;47.732;7.346;2023-04-06T02:43:33;98237.11;;;1.22;63.96
71996;BME280;59862;47.732;7.346;2023-04-06T02:46:01;98228.80;;;1.21;64.27
71996;BME280;59862;47.732;7.346;2023-04-06T02:48:28;98241.78;;;1.13;64.54
71996;BME280;59862;47.732;7.346;2023-04-06T02:50:56;98231.81;;;1.11;64.68
71996;BME280;59862;47.732;7.346;2023-04-06T02:53:23;98235.77;;;1.11;65.22
71996;BME280;59862;47.732;7.346;2023-04-06T02:55:50;98234.71;;;1.08;65.30
71996;BME280;59862;47.732;7.346;2023-04-06T02:58:18;98234.44;;;1.00;65.23
71996;BME280;59862;47.732;7.346;2023-04-06T03:00:45;98234.81;;;1.01;64.87
71996;BME280;59862;47.732;7.346;2023-04-06T03:03:13;98232.40;;;0.98;64.71
71996;BME280;59862;47.732;7.346;2023-04-06T03:05:40;98234.45;;;0.95;64.96
71996;BME280;59862;47.732;7.346;2023-04-06T03:08:08;98228.69;;;0.95;64.76
71996;BME280;59862;47.732;7.346;2023-04-06T03:10:35;98228.54;;;0.91;64.61
71996;BME280;59862;47.732;7.346;2023-04-06T03:13:03;98221.37;;;0.93;64.86
71996;BME280;59862;47.732;7.346;2023-04-06T03:15:30;98229.05;;;0.91;64.83
71996;BME280;59862;47.732;7.346;2023-04-06T03:17:58;98224.95;;;0.87;65.13
71996;BME280;59862;47.732;7.346;2023-04-06T03:20:25;98224.95;;;0.92;65.18
71996;BME280;59862;47.732;7.346;2023-04-06T03:22:53;98228.80;;;0.88;65.77
71996;BME280;59862;47.732;7.346;2023-04-06T03:25:20;98236.94;;;0.85;65.88
71996;BME280;59862;47.732;7.346;2023-04-06T03:27:48;98226.13;;;0.83;65.77
71996;BME280;59862;47.732;7.346;2023-04-06T03:30:15;98233.20;;;0.71;66.40
71996;BME280;59862;47.732;7.346;2023-04-06T03:32:44;98235.81;;;0.65;66.16
71996;BME280;59862;47.732;7.346;2023-04-06T03:35:11;98241.34;;;0.68;65.92
71996;BME280;59862;47.732;7.346;2023-04-06T03:37:39;98237.52;;;0.66;66.08
71996;BME280;59862;47.732;7.346;2023-04-06T03:40:06;98234.16;;;0.64;66.31
71996;BME280;59862;47.732;7.346;2023-04-06T03:42:34;98241.47;;;0.72;66.18
71996;BME280;59862;47.732;7.346;2023-04-06T03:45:01;98241.47;;;0.72;66.35
71996;BME280;59862;47.732;7.346;2023-04-06T03:47:29;98240.03;;;0.68;66.77
71996;BME280;59862;47.732;7.346;2023-04-06T03:49:56;98238.36;;;0.67;66.71
71996;BME280;59862;47.732;7.346;2023-04-06T03:52:24;98241.00;;;0.67;66.36
71996;BME280;59862;47.732;7.346;2023-04-06T03:54:52;98248.67;;;0.70;66.07
71996;BME280;59862;47.732;7.346;2023-04-06T03:57:20;98250.38;;;0.71;66.19
71996;BME280;59862;47.732;7.346;2023-04-06T03:59:47;98254.67;;;0.72;65.81
71996;BME280;59862;47.732;7.346;2023-04-06T04:02:14;98248.11;;;0.78;65.82
71996;BME280;59862;47.732;7.346;2023-04-06T04:04:42;98254.33;;;0.71;65.42
71996;BME280;59862;47.732;7.346;2023-04-06T04:07:09;98253.98;;;0.75;65.02
71996;BME280;59862;47.732;7.346;2023-04-06T04:09:37;98256.53;;;0.88;64.75
71996;BME280;59862;47.732;7.346;2023-04-06T04:12:05;98254.72;;;1.00;64.69
71996;BME280;59862;47.732;7.346;2023-04-06T04:14:32;98253.66;;;0.97;65.01
71996;BME280;59862;47.732;7.346;2023-04-06T04:17:00;98259.05;;;0.90;65.10
71996;BME280;59862;47.732;7.346;2023-04-06T04:19:27;98258.55;;;0.79;65.56
71996;BME280;59862;47.732;7.346;2023-04-06T04:21:54;98262.22;;;0.65;65.95
71996;BME280;59862;47.732;7.346;2023-04-06T04:24:22;98269.45;;;0.69;65.87
71996;BME280;59862;47.732;7.346;2023-04-06T04:26:49;98264.30;;;0.73;65.89
71996;BME280;59862;47.732;7.346;2023-04-06T04:29:17;98266.17;;;0.60;66.37
71996;BME280;59862;47.732;7.346;2023-04-06T04:31:46;98261.49;;;0.58;66.62
71996;BME280;59862;47.732;7.346;2023-04-06T04:34:13;98265.08;;;0.57;66.88
71996;BME280;59862;47.732;7.346;2023-04-06T04:36:41;98267.59;;;0.53;67.31
71996;BME280;59862;47.732;7.346;2023-04-06T04:39:09;98272.52;;;0.52;67.12
71996;BME280;59862;47.732;7.346;2023-04-06T04:41:36;98268.91;;;0.53;67.27
71996;BME280;59862;47.732;7.346;2023-04-06T04:44:03;98271.77;;;0.50;67.56
71996;BME280;59862;47.732;7.346;2023-04-06T04:46:31;98273.50;;;0.33;67.73
71996;BME280;59862;47.732;7.346;2023-04-06T04:48:58;98274.22;;;0.35;67.69
71996;BME280;59862;47.732;7.346;2023-04-06T04:51:26;98275.11;;;0.41;67.88
71996;BME280;59862;47.732;7.346;2023-04-06T04:53:53;98275.33;;;0.38;68.28
71996;BME280;59862;47.732;7.346;2023-04-06T04:56:21;98279.03;;;0.35;68.43
71996;BME280;59862;47.732;7.346;2023-04-06T04:58:48;98276.64;;;0.32;68.57
71996;BME280;59862;47.732;7.346;2023-04-06T05:01:16;98284.64;;;0.31;68.66
71996;BME280;59862;47.732;7.346;2023-04-06T05:03:43;98286.48;;;0.36;68.49
71996;BME280;59862;47.732;7.346;2023-04-06T05:06:11;98287.19;;;0.32;68.58
71996;BME280;59862;47.732;7.346;2023-04-06T05:08:38;98287.28;;;0.31;68.56
71996;BME280;59862;47.732;7.346;2023-04-06T05:11:06;98291.97;;;0.33;68.60
71996;BME280;59862;47.732;7.346;2023-04-06T05:13:33;98291.38;;;0.35;68.79
71996;BME280;59862;47.732;7.346;2023-04-06T05:16:01;98292.56;;;0.31;68.68
71996;BME280;59862;47.732;7.346;2023-04-06T05:18:28;98290.57;;;0.40;68.50
71996;BME280;59862;47.732;7.346;2023-04-06T05:20:56;98288.45;;;0.50;68.44
71996;BME280;59862;47.732;7.346;2023-04-06T05:23:23;98287.26;;;0.54;68.10
71996;BME280;59862;47.732;7.346;2023-04-06T05:25:51;98288.62;;;0.60;67.60
71996;BME280;59862;47.732;7.346;2023-04-06T05:28:18;98292.83;;;0.62;67.20
71996;BME280;59862;47.732;7.346;2023-04-06T05:30:46;98292.50;;;0.78;67.15
71996;BME280;59862;47.732;7.346;2023-04-06T05:33:13;98292.02;;;0.78;66.40
71996;BME280;59862;47.732;7.346;2023-04-06T05:35:41;98292.75;;;0.75;66.23
71996;BME280;59862;47.732;7.346;2023-04-06T05:38:09;98296.62;;;0.82;66.03
71996;BME280;59862;47.732;7.346;2023-04-06T05:40:37;98300.83;;;0.90;64.72
71996;BME280;59862;47.732;7.346;2023-04-06T05:43:06;98301.94;;;0.99;64.11
71996;BME280;59862;47.732;7.346;2023-04-06T05:45:34;98304.73;;;1.08;63.82
71996;BME280;59862;47.732;7.346;2023-04-06T05:48:02;98301.95;;;1.15;62.98
71996;BME280;59862;47.732;7.346;2023-04-06T05:50:30;98301.97;;;1.26;62.81
71996;BME280;59862;47.732;7.346;2023-04-06T05:52:58;98308.00;;;1.39;62.31
71996;BME280;59862;47.732;7.346;2023-04-06T05:55:25;98305.25;;;1.46;61.00
71996;BME280;59862;47.732;7.346;2023-04-06T05:57:54;98306.58;;;1.58;60.84
71996;BME280;59862;47.732;7.346;2023-04-06T06:00:21;98313.40;;;1.71;60.79
71996;BME280;59862;47.732;7.346;2023-04-06T06:02:49;98312.57;;;1.76;60.55
71996;BME280;59862;47.732;7.346;2023-04-06T06:05:16;98311.02;;;1.79;60.46
71996;BME280;59862;47.732;7.346;2023-04-06T06:07:44;98307.50;;;1.84;59.93
71996;BME280;59862;47.732;7.346;2023-04-06T06:10:11;98309.89;;;1.93;59.49
71996;BME280;59862;47.732;7.346;2023-04-06T06:12:39;98313.52;;;2.03;59.96
71996;BME280;59862;47.732;7.346;2023-04-06T06:15:07;98312.52;;;2.15;59.32
71996;BME280;59862;47.732;7.346;2023-04-06T06:17:34;98313.34;;;2.21;58.73
71996;BME280;59862;47.732;7.346;2023-04-06T06:20:02;98322.13;;;2.27;59.06
71996;BME280;59862;47.732;7.346;2023-04-06T06:22:29;98328.94;;;2.41;58.28
71996;BME280;59862;47.732;7.346;2023-04-06T06:24:56;98325.54;;;2.50;57.97
71996;BME280;59862;47.732;7.346;2023-04-06T06:27:24;98321.19;;;2.60;57.81
71996;BME280;59862;47.732;7.346;2023-04-06T06:29:52;98327.27;;;2.71;58.23
71996;BME280;59862;47.732;7.346;2023-04-06T06:32:19;98325.05;;;2.82;57.10
71996;BME280;59862;47.732;7.346;2023-04-06T06:34:47;98324.67;;;2.86;56.99
71996;BME280;59862;47.732;7.346;2023-04-06T06:37:14;98322.30;;;3.04;56.90
71996;BME280;59862;47.732;7.346;2023-04-06T06:39:41;98323.47;;;3.11;57.06
71996;BME280;59862;47.732;7.346;2023-04-06T06:42:09;98323.64;;;3.25;56.30
71996;BME280;59862;47.732;7.346;2023-04-06T06:44:36;98330.55;;;3.37;55.26
71996;BME280;59862;47.732;7.346;2023-04-06T06:47:04;98327.34;;;3.48;54.82
71996;BME280;59862;47.732;7.346;2023-04-06T06:49:31;98323.92;;;3.52;54.98
71996;BME280;59862;47.732;7.346;2023-04-06T06:51:59;98327.13;;;3.61;54.61
71996;BME280;59862;47.732;7.346;2023-04-06T06:54:26;98318.59;;;3.72;54.20
71996;BME280;59862;47.732;7.346;2023-04-06T06:56:54;98312.16;;;3.75;53.99
71996;BME280;59862;47.732;7.346;2023-04-06T06:59:21;98311.65;;;3.81;54.38
71996;BME280;59862;47.732;7.346;2023-04-06T07:01:50;98307.84;;;3.99;54.75
71996;BME280;59862;47.732;7.346;2023-04-06T07:04:17;98313.38;;;4.01;54.76
71996;BME280;59862;47.732;7.346;2023-04-06T07:06:45;98307.70;;;4.15;54.65
71996;BME280;59862;47.732;7.346;2023-04-06T07:09:12;98312.57;;;4.10;54.71
71996;BME280;59862;47.732;7.346;2023-04-06T07:11:40;98315.27;;;4.29;54.58
71996;BME280;59862;47.732;7.346;2023-04-06T07:14:07;98312.64;;;4.39;53.99
71996;BME280;59862;47.732;7.346;2023-04-06T07:16:35;98314.27;;;4.45;53.94
71996;BME280;59862;47.732;7.346;2023-04-06T07:19:02;98320.08;;;4.64;53.37
71996;BME280;59862;47.732;7.346;2023-04-06T07:21:29;98321.36;;;4.89;52.98
71996;BME280;59862;47.732;7.346;2023-04-06T07:23:57;98325.68;;;4.71;52.32
71996;BME280;59862;47.732;7.346;2023-04-06T07:26:24;98326.38;;;4.92;52.24
71996;BME280;59862;47.732;7.346;2023-04-06T07:28:52;98330.48;;;5.28;52.47
71996;BME280;59862;47.732;7.346;2023-04-06T07:31:19;98343.67;;;5.53;50.66
71996;BME280;59862;47.732;7.346;2023-04-06T07:33:47;98336.00;;;5.73;50.44
71996;BME280;59862;47.732;7.346;2023-04-06T07:36:16;98329.89;;;5.86;50.64
71996;BME280;59862;47.732;7.346;2023-04-06T07:38:44;98328.06;;;6.00;49.68
71996;BME280;59862;47.732;7.346;2023-04-06T07:41:12;98330.41;;;5.99;50.44
71996;BME280;59862;47.732;7.346;2023-04-06T07:43:39;98324.18;;;6.36;49.36
71996;BME280;59862;47.732;7.346;2023-04-06T07:46:07;98326.03;;;6.53;49.72
71996;BME280;59862;47.732;7.346;2023-04-06T07:48:34;98321.28;;;6.78;49.13
71996;BME280;59862;47.732;7.346;2023-04-06T07:51:05;98329.39;;;6.86;49.17
71996;BME280;59862;47.732;7.346;2023-04-06T07:53:33;98324.19;;;7.02;47.85
71996;BME280;59862;47.732;7.346;2023-04-06T07:56:00;98333.41;;;7.25;47.92
71996;BME280;59862;47.732;7.346;2023-04-06T07:58:27;98323.93;;;7.52;46.74
71996;BME280;59862;47.732;7.346;2023-04-06T08:00:55;98325.54;;;7.45;47.65
71996;BME280;59862;47.732;7.346;2023-04-06T08:03:24;98330.97;;;7.32;48.47
71996;BME280;59862;47.732;7.346;2023-04-06T08:05:53;98329.70;;;7.22;48.91
71996;BME280;59862;47.732;7.346;2023-04-06T08:08:22;98329.22;;;7.44;49.21
71996;BME280;59862;47.732;7.346;2023-04-06T08:10:49;98319.27;;;7.54;48.99
71996;BME280;59862;47.732;7.346;2023-04-06T08:13:16;98322.98;;;7.57;49.39
71996;BME280;59862;47.732;7.346;2023-04-06T08:15:44;98325.86;;;7.94;49.02
71996;BME280;59862;47.732;7.346;2023-04-06T08:18:11;98320.16;;;8.22;48.92
71996;BME280;59862;47.732;7.346;2023-04-06T08:20:40;98326.83;;;8.18;48.10
71996;BME280;59862;47.732;7.346;2023-04-06T08:23:07;98325.66;;;8.59;47.07
71996;BME280;59862;47.732;7.346;2023-04-06T08:25:38;98313.72;;;9.07;45.79
71996;BME280;59862;47.732;7.346;2023-04-06T08:28:06;98313.72;;;9.07;45.79
71996;BME280;59862;47.732;7.346;2023-04-06T08:30:33;98321.12;;;10.16;43.82
71996;BME280;59862;47.732;7.346;2023-04-06T08:33:00;98321.12;;;10.16;43.82
71996;BME280;59862;47.732;7.346;2023-04-06T08:35:28;98327.80;;;10.59;42.63
71996;BME280;59862;47.732;7.346;2023-04-06T08:37:57;98334.48;;;10.94;41.68
71996;BME280;59862;47.732;7.346;2023-04-06T08:40:25;98325.84;;;11.29;41.21
71996;BME280;59862;47.732;7.346;2023-04-06T08:42:56;98324.05;;;11.44;40.88
71996;BME280;59862;47.732;7.346;2023-04-06T08:45:24;98327.42;;;11.23;40.30
71996;BME280;59862;47.732;7.346;2023-04-06T08:47:52;98329.80;;;11.41;40.05
71996;BME280;59862;47.732;7.346;2023-04-06T08:50:21;98327.53;;;11.30;40.34
71996;BME280;59862;47.732;7.346;2023-04-06T08:52:49;98329.07;;;11.24;40.19
71996;BME280;59862;47.732;7.346;2023-04-06T08:55:17;98330.73;;;11.03;41.24
71996;BME280;59862;47.732;7.346;2023-04-06T08:57:46;98332.10;;;11.25;39.87
71996;BME280;59862;47.732;7.346;2023-04-06T09:00:14;98330.11;;;10.97;39.49
71996;BME280;59862;47.732;7.346;2023-04-06T09:02:46;98335.33;;;10.94;39.33
71996;BME280;59862;47.732;7.346;2023-04-06T09:05:12;98332.86;;;10.89;39.18
71996;BME280;59862;47.732;7.346;2023-04-06T09:07:40;98334.92;;;10.83;37.41
71996;BME280;59862;47.732;7.346;2023-04-06T09:10:08;98335.36;;;10.90;38.93
71996;BME280;59862;47.732;7.346;2023-04-06T09:12:36;98335.39;;;11.09;38.77
71996;BME280;59862;47.732;7.346;2023-04-06T09:15:04;98282.97;;;10.72;39.48
71996;BME280;59862;47.732;7.346;2023-04-06T09:17:33;98337.97;;;11.25;39.77
71996;BME280;59862;47.732;7.346;2023-04-06T09:20:01;98332.05;;;11.11;38.52
71996;BME280;59862;47.732;7.346;2023-04-06T09:22:37;98330.41;;;11.24;35.92
71996;BME280;59862;47.732;7.346;2023-04-06T09:25:06;98330.08;;;11.46;36.07
71996;BME280;59862;47.732;7.346;2023-04-06T09:27:35;98331.54;;;11.75;35.29
71996;BME280;59862;47.732;7.346;2023-04-06T09:30:11;98333.02;;;11.55;36.05
71996;BME280;59862;47.732;7.346;2023-04-06T09:32:55;98327.55;;;11.71;35.71
71996;BME280;59862;47.732;7.346;2023-04-06T09:35:23;98328.41;;;11.86;35.74
71996;BME280;59862;47.732;7.346;2023-04-06T09:37:53;98334.31;;;11.67;35.32
71996;BME280;59862;47.732;7.346;2023-04-06T09:40:21;98326.27;;;11.82;34.48
71996;BME280;59862;47.732;7.346;2023-04-06T09:42:49;98327.89;;;12.45;33.74
71996;BME280;59862;47.732;7.346;2023-04-06T09:45:19;98326.68;;;12.48;33.22
71996;BME280;59862;47.732;7.346;2023-04-06T09:47:47;98324.55;;;12.58;33.06
71996;BME280;59862;47.732;7.346;2023-04-06T09:50:18;98320.82;;;12.59;34.00
71996;BME280;59862;47.732;7.346;2023-04-06T09:52:48;98321.12;;;12.74;34.56
71996;BME280;59862;47.732;7.346;2023-04-06T09:55:30;98317.76;;;13.12;33.71
71996;BME280;59862;47.732;7.346;2023-04-06T09:58:04;98310.95;;;13.76;33.20
71996;BME280;59862;47.732;7.346;2023-04-06T10:00:40;98317.14;;;14.14;32.22
71996;BME280;59862;47.732;7.346;2023-04-06T10:03:13;98310.85;;;14.52;30.91
71996;BME280;59862;47.732;7.346;2023-04-06T10:08:13;98315.65;;;14.80;29.89
71996;BME280;59862;47.732;7.346;2023-04-06T10:10:43;98315.95;;;14.58;29.79
71996;BME280;59862;47.732;7.346;2023-04-06T10:13:11;98308.98;;;15.76;30.16
71996;BME280;59862;47.732;7.346;2023-04-06T10:15:39;98306.67;;;15.99;28.90
71996;BME280;59862;47.732;7.346;2023-04-06T10:18:06;98316.27;;;15.12;28.28
71996;BME280;59862;47.732;7.346;2023-04-06T10:20:53;98316.09;;;14.90;29.17
71996;BME280;59862;47.732;7.346;2023-04-06T10:23:24;98313.41;;;14.67;30.65
71996;BME280;59862;47.732;7.346;2023-04-06T10:25:56;98307.47;;;14.26;31.16
71996;BME280;59862;47.732;7.346;2023-04-06T10:28:25;98307.84;;;13.61;31.07
71996;BME280;59862;47.732;7.346;2023-04-06T10:31:01;98305.93;;;13.34;31.56
71996;BME280;59862;47.732;7.346;2023-04-06T10:33:29;98309.16;;;13.44;31.47
71996;BME280;59862;47.732;7.346;2023-04-06T10:35:57;98297.27;;;13.88;31.90
71996;BME280;59862;47.732;7.346;2023-04-06T10:38:35;98297.39;;;13.80;31.84
71996;BME280;59862;47.732;7.346;2023-04-06T10:41:16;98299.98;;;13.66;31.81
71996;BME280;59862;47.732;7.346;2023-04-06T10:43:39;98295.43;;;13.67;31.93
71996;BME280;59862;47.732;7.346;2023-04-06T10:46:09;98297.49;;;14.10;32.28
71996;BME280;59862;47.732;7.346;2023-04-06T10:48:41;98296.06;;;14.65;30.62
71996;BME280;59862;47.732;7.346;2023-04-06T10:51:16;98300.27;;;14.51;31.55
71996;BME280;59862;47.732;7.346;2023-04-06T10:53:48;98291.14;;;14.88;29.96
71996;BME280;59862;47.732;7.346;2023-04-06T10:56:17;98300.26;;;14.74;29.87
71996;BME280;59862;47.732;7.346;2023-04-06T10:58:54;98298.88;;;14.44;30.54
71996;BME280;59862;47.732;7.346;2023-04-06T11:01:23;98295.92;;;14.22;30.79
71996;BME280;59862;47.732;7.346;2023-04-06T11:03:55;98296.23;;;14.06;30.55
71996;BME280;59862;47.732;7.346;2023-04-06T11:06:29;98301.87;;;13.66;30.24
71996;BME280;59862;47.732;7.346;2023-04-06T11:08:59;98293.36;;;13.41;31.05
71996;BME280;59862;47.732;7.346;2023-04-06T11:11:27;98293.99;;;13.43;32.34
71996;BME280;59862;47.732;7.346;2023-04-06T11:13:59;98283.53;;;14.00;31.72
71996;BME280;59862;47.732;7.346;2023-04-06T11:16:31;98291.33;;;14.50;30.94
71996;BME280;59862;47.732;7.346;2023-04-06T11:19:03;98290.30;;;14.34;30.78
71996;BME280;59862;47.732;7.346;2023-04-06T11:21:43;98288.17;;;14.40;31.38
71996;BME280;59862;47.732;7.346;2023-04-06T11:24:18;98289.42;;;14.27;31.47
71996;BME280;59862;47.732;7.346;2023-04-06T11:26:56;98293.90;;;14.48;30.68
71996;BME280;59862;47.732;7.346;2023-04-06T11:29:27;98280.37;;;14.41;31.60
71996;BME280;59862;47.732;7.346;2023-04-06T11:32:03;98268.52;;;14.08;31.11
71996;BME280;59862;47.732;7.346;2023-04-06T11:34:34;98271.19;;;14.29;31.75
71996;BME280;59862;47.732;7.346;2023-04-06T11:37:10;98273.14;;;14.48;30.99
71996;BME280;59862;47.732;7.346;2023-04-06T11:39:51;98276.47;;;14.50;30.20
71996;BME280;59862;47.732;7.346;2023-04-06T11:42:26;98267.44;;;14.30;29.86
71996;BME280;59862;47.732;7.346;2023-04-06T11:44:56;98264.32;;;14.80;30.50
71996;BME280;59862;47.732;7.346;2023-04-06T11:47:32;98272.47;;;14.63;28.81
71996;BME280;59862;47.732;7.346;2023-04-06T11:50:07;98261.86;;;14.55;30.44
71996;BME280;59862;47.732;7.346;2023-04-06T11:52:35;98261.08;;;15.17;29.66
71996;BME280;59862;47.732;7.346;2023-04-06T11:55:18;98255.77;;;15.13;29.41
71996;BME280;59862;47.732;7.346;2023-04-06T11:57:46;98254.33;;;15.24;29.38
71996;BME280;59862;47.732;7.346;2023-04-06T12:00:14;98239.39;;;15.48;29.35
71996;BME280;59862;47.732;7.346;2023-04-06T12:02:47;98248.81;;;15.22;28.78
71996;BME280;59862;47.732;7.346;2023-04-06T12:05:15;98242.02;;;15.02;29.33
71996;BME280;59862;47.732;7.346;2023-04-06T12:07:43;98232.08;;;15.29;29.61
71996;BME280;59862;47.732;7.346;2023-04-06T12:10:11;98230.92;;;15.40;28.64
71996;BME280;59862;47.732;7.346;2023-04-06T12:12:38;98235.09;;;15.75;29.25
71996;BME280;59862;47.732;7.346;2023-04-06T12:15:07;98231.69;;;16.13;28.91
71996;BME280;59862;47.732;7.346;2023-04-06T12:17:34;98230.38;;;16.00;28.58
71996;BME280;59862;47.732;7.346;2023-04-06T12:20:03;98229.88;;;16.22;28.77
71996;BME280;59862;47.732;7.346;2023-04-06T12:22:30;98228.27;;;16.65;28.32
71996;BME280;59862;47.732;7.346;2023-04-06T12:24:58;98226.39;;;17.04;27.21
71996;BME280;59862;47.732;7.346;2023-04-06T12:27:26;98226.81;;;16.70;27.30
71996;BME280;59862;47.732;7.346;2023-04-06T12:29:54;98229.44;;;17.29;25.94
71996;BME280;59862;47.732;7.346;2023-04-06T12:32:22;98227.22;;;16.89;26.34
71996;BME280;59862;47.732;7.346;2023-04-06T12:34:51;98216.42;;;16.98;26.86
71996;BME280;59862;47.732;7.346;2023-04-06T12:37:18;98217.67;;;16.80;26.34
71996;BME280;59862;47.732;7.346;2023-04-06T12:39:46;98210.68;;;17.28;26.79
71996;BME280;59862;47.732;7.346;2023-04-06T12:42:14;98221.16;;;16.71;27.92
71996;BME280;59862;47.732;7.346;2023-04-06T12:44:42;98214.52;;;15.68;28.54
71996;BME280;59862;47.732;7.346;2023-04-06T12:47:10;98214.79;;;15.82;29.68
71996;BME280;59862;47.732;7.346;2023-04-06T12:49:38;98215.22;;;16.14;29.18
71996;BME280;59862;47.732;7.346;2023-04-06T12:52:06;98214.02;;;16.32;28.38
71996;BME280;59862;47.732;7.346;2023-04-06T12:54:33;98213.61;;;16.80;27.87
71996;BME280;59862;47.732;7.346;2023-04-06T12:57:01;98215.50;;;16.28;28.33
71996;BME280;59862;47.732;7.346;2023-04-06T12:59:29;98214.30;;;15.69;29.18
71996;BME280;59862;47.732;7.346;2023-04-06T13:01:58;98212.34;;;15.54;29.50
71996;BME280;59862;47.732;7.346;2023-04-06T13:04:25;98206.71;;;15.56;29.26
71996;BME280;59862;47.732;7.346;2023-04-06T13:06:52;98204.42;;;16.36;29.13
71996;BME280;59862;47.732;7.346;2023-04-06T13:09:20;98211.83;;;16.83;28.50
71996;BME280;59862;47.732;7.346;2023-04-06T13:11:48;98206.31;;;17.85;26.64
71996;BME280;59862;47.732;7.346;2023-04-06T13:14:15;98206.01;;;17.35;27.06
71996;BME280;59862;47.732;7.346;2023-04-06T13:16:43;98211.30;;;17.14;27.51